createdAt,value
2017-04-21T00:00:47.355Z,0
2017-04-21T00:01:55.441Z,0
2017-04-21T00:03:03.530Z,0
2017-04-21T00:04:11.613Z,0
2017-04-21T00:05:19.702Z,0
2017-04-21T00:06:27.791Z,0
2017-04-21T00:07:35.877Z,0
2017-04-21T00:08:43.963Z,0
2017-04-21T00:09:52.052Z,0
2017-04-21T00:11:00.141Z,0
2017-04-21T00:12:08.226Z,0
2017-04-21T00:13:16.307Z,0
2017-04-21T00:14:24.398Z,0
2017-04-21T00:15:32.485Z,0
2017-04-21T00:16:40.568Z,0
2017-04-21T00:17:49.034Z,0
2017-04-21T00:18:56.748Z,0
2017-04-21T00:20:04.831Z,0
2017-04-21T00:21:12.919Z,0
2017-04-21T00:22:21.009Z,0
2017-04-21T00:23:29.099Z,0
2017-04-21T00:24:37.179Z,0
2017-04-21T00:25:45.269Z,0
2017-04-21T00:26:53.356Z,0
2017-04-21T00:28:01.442Z,0
2017-04-21T00:29:09.574Z,0
2017-04-21T00:30:17.618Z,0
2017-04-21T00:31:25.707Z,0
2017-04-21T00:32:33.790Z,0
2017-04-21T00:33:41.878Z,0
2017-04-21T00:34:49.967Z,0
2017-04-21T00:35:58.067Z,0
2017-04-21T00:37:06.165Z,0
2017-04-21T00:38:14.241Z,0
2017-04-21T00:39:22.328Z,0
2017-04-21T00:40:30.411Z,0
2017-04-21T00:41:38.503Z,0
2017-04-21T00:42:46.588Z,0
2017-04-21T00:43:54.671Z,0
2017-04-21T00:45:02.762Z,0
2017-04-21T00:46:10.851Z,0
2017-04-21T00:47:18.934Z,0
2017-04-21T00:48:27.016Z,0
2017-04-21T00:49:35.108Z,0
2017-04-21T00:50:43.203Z,0
2017-04-21T00:51:51.280Z,0
2017-04-21T00:52:59.369Z,0
2017-04-21T00:54:07.451Z,0
2017-04-21T00:55:15.539Z,0
2017-04-21T00:56:23.621Z,0
2017-04-21T00:57:31.711Z,0
2017-04-21T00:58:39.804Z,0
2017-04-21T00:59:47.887Z,0
2017-04-21T01:00:55.973Z,0
2017-04-21T01:02:04.060Z,0
2017-04-21T01:03:12.149Z,0
2017-04-21T01:04:20.232Z,0
2017-04-21T01:05:28.321Z,0
2017-04-21T01:06:36.409Z,0
2017-04-21T01:07:44.488Z,0
2017-04-21T01:08:52.585Z,0
2017-04-21T01:10:00.664Z,0
2017-04-21T01:11:08.752Z,0
2017-04-21T01:12:16.834Z,0
2017-04-21T01:13:24.928Z,0
2017-04-21T01:14:33.012Z,0
2017-04-21T01:15:41.095Z,0
2017-04-21T01:16:49.188Z,0
2017-04-21T01:17:57.273Z,0
2017-04-21T01:19:05.360Z,0
2017-04-21T01:20:13.446Z,0
2017-04-21T01:21:21.535Z,0
2017-04-21T01:22:29.623Z,0
2017-04-21T01:23:37.711Z,0
2017-04-21T01:24:45.796Z,0
2017-04-21T01:25:53.884Z,0
2017-04-21T01:27:01.966Z,0
2017-04-21T01:28:10.054Z,0
2017-04-21T01:29:18.146Z,0
2017-04-21T01:30:26.229Z,0
2017-04-21T01:31:34.311Z,0
2017-04-21T01:32:42.404Z,0
2017-04-21T01:33:50.487Z,0
2017-04-21T01:34:58.575Z,0
2017-04-21T01:36:06.657Z,0
2017-04-21T01:37:14.756Z,0
2017-04-21T01:38:22.834Z,0
2017-04-21T01:39:30.920Z,0
2017-04-21T01:40:39.010Z,0
2017-04-21T01:41:47.095Z,0
2017-04-21T01:42:55.180Z,0
2017-04-21T01:44:03.265Z,0
2017-04-21T01:45:11.352Z,0
2017-04-21T01:46:19.439Z,0
2017-04-21T01:47:27.525Z,0
2017-04-21T01:48:35.613Z,0
2017-04-21T01:49:43.698Z,0
2017-04-21T01:50:51.799Z,0
2017-04-21T01:51:59.868Z,0
2017-04-21T01:53:07.959Z,0
2017-04-21T01:54:16.043Z,0
2017-04-21T01:55:24.129Z,0
2017-04-21T01:56:32.220Z,0
2017-04-21T01:57:40.303Z,0
2017-04-21T01:58:48.391Z,0
2017-04-21T01:59:56.475Z,0
2017-04-21T02:01:04.562Z,0
2017-04-21T02:02:12.653Z,0
2017-04-21T02:03:20.739Z,0
2017-04-21T02:04:28.829Z,0
2017-04-21T02:05:36.916Z,0
2017-04-21T02:06:44.996Z,0
2017-04-21T02:07:53.089Z,0
2017-04-21T02:09:01.273Z,0
2017-04-21T02:10:09.261Z,0
2017-04-21T02:11:17.347Z,0
2017-04-21T02:12:25.434Z,0
2017-04-21T02:13:33.520Z,0
2017-04-21T02:14:41.608Z,0
2017-04-21T02:15:49.698Z,0
2017-04-21T02:16:57.785Z,0
2017-04-21T02:18:05.867Z,0
2017-04-21T02:19:13.953Z,0
2017-04-21T02:20:22.041Z,0
2017-04-21T02:21:30.127Z,0
2017-04-21T02:22:38.213Z,0
2017-04-21T02:23:46.301Z,0
2017-04-21T02:24:54.395Z,0
2017-04-21T02:26:02.507Z,0
2017-04-21T02:27:10.563Z,0
2017-04-21T02:28:18.653Z,0
2017-04-21T02:29:26.737Z,0
2017-04-21T02:30:34.821Z,0
2017-04-21T02:31:42.914Z,0
2017-04-21T02:32:50.996Z,0
2017-04-21T02:33:59.082Z,0
2017-04-21T02:35:07.167Z,0
2017-04-21T02:36:15.257Z,0
2017-04-21T02:37:23.341Z,0
2017-04-21T02:38:31.427Z,0
2017-04-21T02:39:39.515Z,0
2017-04-21T02:40:47.603Z,0
2017-04-21T02:41:55.685Z,0
2017-04-21T02:43:03.860Z,0
2017-04-21T02:44:11.862Z,0
2017-04-21T02:45:19.955Z,0
2017-04-21T02:46:28.035Z,0
2017-04-21T02:47:36.126Z,0
2017-04-21T02:48:44.214Z,0
2017-04-21T02:49:52.301Z,0
2017-04-21T02:51:00.388Z,0
2017-04-21T02:52:08.489Z,0
2017-04-21T02:53:16.558Z,0
2017-04-21T02:54:24.644Z,0
2017-04-21T02:55:32.735Z,0
2017-04-21T02:56:40.818Z,0
2017-04-21T02:57:48.906Z,0
2017-04-21T02:58:56.989Z,0
2017-04-21T03:00:05.081Z,0
2017-04-21T03:01:13.165Z,0
2017-04-21T03:02:21.248Z,0
2017-04-21T03:03:29.339Z,0
2017-04-21T03:04:37.427Z,0
2017-04-21T03:05:45.510Z,0
2017-04-21T03:06:53.600Z,0
2017-04-21T03:08:01.696Z,0
2017-04-21T03:09:09.779Z,0
2017-04-21T03:10:17.862Z,0
2017-04-21T03:11:25.955Z,0
2017-04-21T03:12:34.049Z,0
2017-04-21T03:13:42.135Z,0
2017-04-21T03:14:50.219Z,0
2017-04-21T03:15:58.305Z,0
2017-04-21T03:17:06.392Z,0
2017-04-21T03:18:14.481Z,0
2017-04-21T03:19:22.567Z,0
2017-04-21T03:20:30.654Z,0
2017-04-21T03:21:38.740Z,0
2017-04-21T03:22:46.825Z,0
2017-04-21T03:23:54.911Z,0
2017-04-21T03:25:03.007Z,0
2017-04-21T03:26:11.084Z,0
2017-04-21T03:27:19.179Z,0
2017-04-21T03:28:27.265Z,0
2017-04-21T03:29:35.365Z,0
2017-04-21T03:30:43.440Z,0
2017-04-21T03:31:51.525Z,0
2017-04-21T03:32:59.611Z,0
2017-04-21T03:34:07.693Z,0
2017-04-21T03:35:15.782Z,0
2017-04-21T03:36:23.869Z,0
2017-04-21T03:37:31.949Z,0
2017-04-21T03:38:40.042Z,0
2017-04-21T03:39:48.126Z,0
2017-04-21T03:40:56.212Z,0
2017-04-21T03:42:04.300Z,0
2017-04-21T03:43:12.394Z,0
2017-04-21T03:44:20.476Z,0
2017-04-21T03:45:28.559Z,0
2017-04-21T03:46:36.651Z,0
2017-04-21T03:47:44.734Z,0
2017-04-21T03:48:52.821Z,0
2017-04-21T03:50:00.907Z,0
2017-04-21T03:51:09.145Z,0
2017-04-21T03:52:17.083Z,0
2017-04-21T03:53:25.169Z,0
2017-04-21T03:54:33.262Z,0
2017-04-21T03:55:41.348Z,0
2017-04-21T03:56:49.436Z,0
2017-04-21T03:57:57.522Z,0
2017-04-21T03:59:05.621Z,0
2017-04-21T04:00:13.698Z,0
2017-04-21T04:01:21.782Z,0
2017-04-21T04:02:29.872Z,0
2017-04-21T04:03:37.957Z,0
2017-04-21T04:04:46.040Z,0
2017-04-21T04:05:54.126Z,0
2017-04-21T04:07:02.219Z,0
2017-04-21T04:08:10.299Z,0
2017-04-21T04:09:18.382Z,0
2017-04-21T04:10:26.473Z,0
2017-04-21T04:11:34.566Z,0
2017-04-21T04:12:42.654Z,0
2017-04-21T04:13:50.741Z,0
2017-04-21T04:14:58.828Z,0
2017-04-21T04:16:06.914Z,0
2017-04-21T04:17:14.996Z,0
2017-04-21T04:18:23.086Z,0
2017-04-21T04:19:31.170Z,0
2017-04-21T04:20:39.254Z,0
2017-04-21T04:21:47.342Z,0
2017-04-21T04:22:55.447Z,0
2017-04-21T04:24:03.514Z,0
2017-04-21T04:25:11.649Z,0
2017-04-21T04:26:19.689Z,0
2017-04-21T04:27:27.782Z,0
2017-04-21T04:28:35.865Z,4
2017-04-21T04:29:43.960Z,4
2017-04-21T04:30:52.050Z,4
2017-04-21T04:32:00.136Z,0
2017-04-21T04:33:08.224Z,0
2017-04-21T04:34:16.311Z,0
2017-04-21T04:35:24.395Z,0
2017-04-21T04:36:32.480Z,0
2017-04-21T04:37:40.566Z,4
2017-04-21T04:38:48.650Z,4
2017-04-21T04:39:56.736Z,4
2017-04-21T04:41:04.823Z,4
2017-04-21T04:42:12.913Z,0
2017-04-21T04:43:20.995Z,0
2017-04-21T04:44:29.078Z,0
2017-04-21T04:45:37.173Z,4
2017-04-21T04:46:45.275Z,4
2017-04-21T04:47:53.338Z,4
2017-04-21T04:49:01.421Z,4
2017-04-21T04:50:09.510Z,4
2017-04-21T04:51:17.596Z,4
2017-04-21T04:52:25.679Z,0
2017-04-21T04:53:33.772Z,4
2017-04-21T04:54:41.952Z,4
2017-04-21T04:55:49.936Z,4
2017-04-21T04:56:58.036Z,4
2017-04-21T04:58:06.117Z,8
2017-04-21T04:59:14.200Z,4
2017-04-21T05:00:22.295Z,4
2017-04-21T05:01:30.369Z,4
2017-04-21T05:02:38.456Z,4
2017-04-21T05:03:46.540Z,4
2017-04-21T05:04:54.634Z,4
2017-04-21T05:06:02.714Z,8
2017-04-21T05:07:10.797Z,8
2017-04-21T05:08:18.882Z,4
2017-04-21T05:09:26.974Z,4
2017-04-21T05:10:35.055Z,8
2017-04-21T05:11:43.166Z,8
2017-04-21T05:12:51.219Z,8
2017-04-21T05:13:59.308Z,8
2017-04-21T05:15:07.393Z,4
2017-04-21T05:16:15.475Z,8
2017-04-21T05:17:23.564Z,8
2017-04-21T05:18:31.650Z,8
2017-04-21T05:19:39.731Z,8
2017-04-21T05:20:47.820Z,4
2017-04-21T05:21:55.907Z,8
2017-04-21T05:23:03.992Z,8
2017-04-21T05:24:12.071Z,8
2017-04-21T05:25:20.162Z,8
2017-04-21T05:26:28.242Z,8
2017-04-21T05:27:36.334Z,8
2017-04-21T05:28:44.431Z,8
2017-04-21T05:29:52.506Z,8
2017-04-21T05:31:00.590Z,4
2017-04-21T05:32:08.675Z,8
2017-04-21T05:33:16.765Z,4
2017-04-21T05:34:24.847Z,8
2017-04-21T05:35:32.932Z,8
2017-04-21T05:36:41.016Z,8
2017-04-21T05:37:49.102Z,8
2017-04-21T05:38:57.184Z,8
2017-04-21T05:40:05.269Z,12
2017-04-21T05:41:13.360Z,12
2017-04-21T05:42:21.445Z,12
2017-04-21T05:43:29.529Z,12
2017-04-21T05:44:37.623Z,16
2017-04-21T05:45:45.703Z,12
2017-04-21T05:46:53.798Z,12
2017-04-21T05:48:01.874Z,16
2017-04-21T05:49:09.957Z,16
2017-04-21T05:50:18.054Z,16
2017-04-21T05:51:26.136Z,12
2017-04-21T05:52:34.218Z,8
2017-04-21T05:53:42.305Z,12
2017-04-21T05:54:50.385Z,12
2017-04-21T05:55:58.764Z,12
2017-04-21T05:57:06.567Z,20
2017-04-21T05:58:14.648Z,48
2017-04-21T05:59:22.737Z,40
2017-04-21T06:00:30.821Z,56
2017-04-21T06:01:38.906Z,48
2017-04-21T06:02:46.997Z,56
2017-04-21T06:03:55.074Z,56
2017-04-21T06:05:03.167Z,60
2017-04-21T06:06:11.253Z,60
2017-04-21T06:07:19.332Z,64
2017-04-21T06:08:27.423Z,68
2017-04-21T06:09:35.650Z,72
2017-04-21T06:10:43.600Z,72
2017-04-21T06:11:51.674Z,72
2017-04-21T06:12:59.763Z,64
2017-04-21T06:14:07.849Z,56
2017-04-21T06:15:16.084Z,44
2017-04-21T06:16:24.019Z,48
2017-04-21T06:17:33.366Z,48
2017-04-21T06:18:40.188Z,24
2017-04-21T06:19:48.350Z,48
2017-04-21T06:20:56.367Z,28
2017-04-21T06:22:04.451Z,28
2017-04-21T06:23:12.533Z,40
2017-04-21T06:24:20.624Z,40
2017-04-21T06:25:28.711Z,40
2017-04-21T06:26:36.797Z,32
2017-04-21T06:27:44.886Z,48
2017-04-21T06:28:52.971Z,48
2017-04-21T06:30:02.849Z,48
2017-04-21T06:31:09.138Z,48
2017-04-21T06:32:17.234Z,44
2017-04-21T06:33:25.316Z,48
2017-04-21T06:34:33.400Z,48
2017-04-21T06:35:41.490Z,48
2017-04-21T06:36:49.579Z,48
2017-04-21T06:37:57.663Z,44
2017-04-21T06:39:05.745Z,48
2017-04-21T06:40:13.833Z,44
2017-04-21T06:41:21.918Z,44
2017-04-21T06:42:30.038Z,44
2017-04-21T06:43:38.090Z,40
2017-04-21T06:44:46.176Z,40
2017-04-21T06:45:54.939Z,36
2017-04-21T06:47:02.358Z,32
2017-04-21T06:48:10.431Z,32
2017-04-21T06:49:18.521Z,48
2017-04-21T06:50:26.604Z,28
2017-04-21T06:51:34.691Z,24
2017-04-21T06:52:42.778Z,32
2017-04-21T06:53:50.860Z,40
2017-04-21T06:54:58.946Z,40
2017-04-21T06:56:07.031Z,44
2017-04-21T06:57:15.118Z,44
2017-04-21T06:58:23.206Z,48
2017-04-21T06:59:31.299Z,48
2017-04-21T07:00:39.383Z,52
2017-04-21T07:01:47.469Z,48
2017-04-21T07:02:55.551Z,48
2017-04-21T07:04:03.639Z,48
2017-04-21T07:05:11.722Z,48
2017-04-21T07:06:19.805Z,44
2017-04-21T07:07:27.900Z,48
2017-04-21T07:08:35.981Z,48
2017-04-21T07:09:44.065Z,44
2017-04-21T07:10:52.214Z,52
2017-04-21T07:12:00.239Z,48
2017-04-21T07:13:08.326Z,36
2017-04-21T07:14:16.408Z,48
2017-04-21T07:15:24.494Z,52
2017-04-21T07:16:32.582Z,48
2017-04-21T07:17:40.663Z,40
2017-04-21T07:18:48.749Z,48
2017-04-21T07:19:56.840Z,48
2017-04-21T07:21:04.925Z,52
2017-04-21T07:22:13.010Z,48
2017-04-21T07:23:21.099Z,44
2017-04-21T07:24:29.189Z,44
2017-04-21T07:25:37.282Z,44
2017-04-21T07:26:45.361Z,48
2017-04-21T07:27:53.446Z,48
2017-04-21T07:29:01.529Z,48
2017-04-21T07:30:09.614Z,44
2017-04-21T07:31:17.704Z,40
2017-04-21T07:32:25.790Z,44
2017-04-21T07:33:33.876Z,52
2017-04-21T07:34:41.962Z,44
2017-04-21T07:36:58.258Z,40
2017-04-21T07:38:06.213Z,44
2017-04-21T07:39:14.307Z,44
2017-04-21T07:40:22.387Z,44
2017-04-21T07:41:30.472Z,44
2017-04-21T07:42:38.563Z,44
2017-04-21T07:43:46.647Z,48
2017-04-21T07:44:54.731Z,48
2017-04-21T07:46:02.820Z,48
2017-04-21T07:47:10.903Z,56
2017-04-21T07:48:18.994Z,44
2017-04-21T07:49:27.074Z,40
2017-04-21T07:50:35.162Z,40
2017-04-21T07:51:43.247Z,40
2017-04-21T07:52:51.330Z,40
2017-04-21T07:53:59.416Z,40
2017-04-21T07:55:07.507Z,40
2017-04-21T07:56:15.602Z,40
2017-04-21T07:57:23.681Z,40
2017-04-21T07:58:31.765Z,40
2017-04-21T07:59:39.856Z,40
2017-04-21T08:01:44.438Z,40
2017-04-21T08:01:56.024Z,36
2017-04-21T08:03:04.112Z,40
2017-04-21T08:04:12.863Z,36
2017-04-21T08:05:20.279Z,36
2017-04-21T08:06:28.368Z,36
2017-04-21T08:07:36.456Z,32
2017-04-21T08:08:44.549Z,36
2017-04-21T08:09:52.625Z,36
2017-04-21T08:11:00.716Z,36
2017-04-21T08:12:08.801Z,36
2017-04-21T08:13:16.883Z,40
2017-04-21T08:14:24.978Z,40
2017-04-21T08:15:33.138Z,40
2017-04-21T08:16:41.140Z,44
2017-04-21T08:17:49.226Z,40
2017-04-21T08:18:57.313Z,40
2017-04-21T08:20:05.397Z,40
2017-04-21T08:21:13.486Z,40
2017-04-21T08:22:21.578Z,36
2017-04-21T08:23:29.667Z,36
2017-04-21T08:24:37.752Z,44
2017-04-21T08:25:45.833Z,40
2017-04-21T08:26:53.925Z,44
2017-04-21T08:28:02.005Z,48
2017-04-21T08:29:10.095Z,40
2017-04-21T08:30:18.181Z,52
2017-04-21T08:31:26.279Z,40
2017-04-21T08:32:34.352Z,40
2017-04-21T08:33:42.440Z,52
2017-04-21T08:34:50.527Z,48
2017-04-21T08:35:58.616Z,44
2017-04-21T08:37:06.786Z,40
2017-04-21T08:38:14.791Z,36
2017-04-21T08:39:22.880Z,36
2017-04-21T08:40:30.961Z,40
2017-04-21T08:41:39.051Z,40
2017-04-21T08:42:47.138Z,52
2017-04-21T08:43:55.262Z,52
2017-04-21T08:45:03.307Z,52
2017-04-21T08:46:11.396Z,48
2017-04-21T08:47:19.481Z,48
2017-04-21T08:48:27.568Z,52
2017-04-21T08:49:35.653Z,48
2017-04-21T08:50:43.740Z,52
2017-04-21T08:51:51.825Z,48
2017-04-21T08:52:59.909Z,44
2017-04-21T08:54:07.999Z,44
2017-04-21T08:55:16.197Z,48
2017-04-21T08:56:24.586Z,48
2017-04-21T08:57:32.623Z,44
2017-04-21T08:58:40.438Z,44
2017-04-21T08:59:48.525Z,44
2017-04-21T09:00:56.509Z,44
2017-04-21T09:02:04.601Z,44
2017-04-21T09:03:12.689Z,44
2017-04-21T09:04:21.118Z,44
2017-04-21T09:05:28.862Z,44
2017-04-21T09:06:36.949Z,44
2017-04-21T09:07:45.032Z,44
2017-04-21T09:08:53.114Z,44
2017-04-21T09:10:01.204Z,44
2017-04-21T09:11:09.289Z,44
2017-04-21T09:12:17.377Z,44
2017-04-21T09:13:25.462Z,44
2017-04-21T09:14:33.550Z,44
2017-04-21T09:15:41.637Z,44
2017-04-21T09:16:49.717Z,44
2017-04-21T09:17:57.812Z,44
2017-04-21T09:19:05.895Z,44
2017-04-21T09:20:13.978Z,44
2017-04-21T09:21:22.068Z,44
2017-04-21T09:22:30.162Z,44
2017-04-21T09:23:38.247Z,44
2017-04-21T09:24:46.331Z,44
2017-04-21T09:25:54.419Z,44
2017-04-21T09:27:02.503Z,44
2017-04-21T09:28:10.589Z,48
2017-04-21T09:29:18.683Z,48
2017-04-21T09:30:26.760Z,44
2017-04-21T09:35:36.402Z,44
2017-04-21T09:36:18.093Z,48
2017-04-21T09:37:15.279Z,48
2017-04-21T09:38:23.363Z,48
2017-04-21T09:39:31.445Z,44
2017-04-21T09:40:39.537Z,44
2017-04-21T09:41:47.623Z,48
2017-04-21T09:43:38.841Z,48
2017-04-21T09:44:14.349Z,44
2017-04-21T09:45:11.877Z,48
2017-04-21T09:46:19.963Z,48
2017-04-21T09:47:28.049Z,48
2017-04-21T09:48:36.135Z,44
2017-04-21T09:49:44.219Z,44
2017-04-21T09:50:52.304Z,48
2017-04-21T09:58:49.027Z,48
2017-04-21T10:09:01.680Z,48
2017-04-21T10:10:09.766Z,48
2017-04-21T10:11:17.850Z,48
2017-04-21T10:12:25.937Z,48
2017-04-21T10:13:34.024Z,48
2017-04-21T10:14:42.104Z,48
2017-04-21T10:15:50.192Z,48
2017-04-21T10:16:58.281Z,48
2017-04-21T10:18:06.366Z,48
2017-04-21T10:19:14.449Z,52
2017-04-21T10:20:22.538Z,52
2017-04-21T10:21:30.628Z,48
2017-04-21T10:22:38.715Z,52
2017-04-21T10:23:46.797Z,48
2017-04-21T10:24:54.888Z,48
2017-04-21T10:26:02.972Z,48
2017-04-21T10:27:11.056Z,48
2017-04-21T10:28:19.145Z,48
2017-04-21T10:29:27.231Z,48
2017-04-21T10:30:35.316Z,48
2017-04-21T10:31:43.401Z,48
2017-04-21T10:32:51.495Z,48
2017-04-21T10:33:59.578Z,48
2017-04-21T10:35:07.662Z,48
2017-04-21T10:36:15.753Z,52
2017-04-21T10:37:23.846Z,48
2017-04-21T10:38:31.931Z,48
2017-04-21T10:39:40.026Z,48
2017-04-21T10:40:48.132Z,48
2017-04-21T10:41:56.203Z,48
2017-04-21T10:43:04.292Z,44
2017-04-21T10:44:12.385Z,44
2017-04-21T10:45:20.469Z,48
2017-04-21T10:46:28.560Z,48
2017-04-21T10:47:36.640Z,48
2017-04-21T10:48:44.725Z,48
2017-04-21T10:49:52.815Z,44
2017-04-21T10:51:00.896Z,48
2017-04-21T10:52:08.984Z,48
2017-04-21T10:53:17.076Z,48
2017-04-21T10:54:25.153Z,48
2017-04-21T10:55:33.240Z,48
2017-04-21T10:56:41.326Z,48
2017-04-21T10:57:49.412Z,48
2017-04-21T10:58:57.496Z,48
2017-04-21T11:00:05.584Z,48
2017-04-21T11:01:13.670Z,44
2017-04-21T11:02:21.755Z,48
2017-04-21T11:03:29.842Z,44
2017-04-21T11:04:37.929Z,44
2017-04-21T11:05:46.011Z,48
2017-04-21T11:06:54.096Z,48
2017-04-21T11:08:02.187Z,48
2017-04-21T11:09:10.274Z,48
2017-04-21T11:10:18.354Z,44
2017-04-21T11:11:26.441Z,44
2017-04-21T11:12:34.533Z,48
2017-04-21T11:13:42.630Z,44
2017-04-21T11:14:50.702Z,48
2017-04-21T11:15:58.791Z,44
2017-04-21T11:17:06.966Z,44
2017-04-21T11:18:14.970Z,44
2017-04-21T11:19:23.060Z,44
2017-04-21T11:20:31.147Z,44
2017-04-21T11:21:39.228Z,44
2017-04-21T11:22:47.314Z,48
2017-04-21T11:23:55.403Z,44
2017-04-21T11:25:03.488Z,44
2017-04-21T11:26:11.574Z,44
2017-04-21T11:27:19.664Z,44
2017-04-21T11:28:27.866Z,44
2017-04-21T11:29:35.842Z,44
2017-04-21T11:30:43.921Z,44
2017-04-21T11:31:52.014Z,44
2017-04-21T11:33:00.100Z,44
2017-04-21T11:34:08.182Z,44
2017-04-21T11:35:16.274Z,44
2017-04-21T11:36:24.365Z,44
2017-04-21T11:37:32.457Z,40
2017-04-21T11:38:40.533Z,40
2017-04-21T11:39:48.624Z,44
2017-04-21T11:40:56.708Z,44
2017-04-21T11:42:04.788Z,40
2017-04-21T11:43:12.878Z,44
2017-04-21T11:44:20.967Z,44
2017-04-21T11:45:29.052Z,44
2017-04-21T11:46:37.138Z,44
2017-04-21T11:47:45.226Z,44
2017-04-21T11:48:53.312Z,40
2017-04-21T11:50:01.401Z,44
2017-04-21T11:51:09.484Z,44
2017-04-21T11:52:17.568Z,40
2017-04-21T11:53:25.648Z,44
2017-04-21T11:54:33.738Z,44
2017-04-21T11:55:41.824Z,44
2017-04-21T11:56:49.910Z,40
2017-04-21T11:57:57.994Z,36
2017-04-21T11:59:06.087Z,36
2017-04-21T12:00:14.171Z,40
2017-04-21T12:01:22.258Z,36
2017-04-21T12:02:30.345Z,36
2017-04-21T12:03:38.427Z,40
2017-04-21T12:04:46.510Z,40
2017-04-21T12:05:54.594Z,40
2017-04-21T12:07:02.682Z,44
2017-04-21T12:08:10.826Z,40
2017-04-21T12:09:18.854Z,40
2017-04-21T12:10:26.945Z,40
2017-04-21T12:11:35.029Z,40
2017-04-21T12:12:43.120Z,40
2017-04-21T12:13:51.199Z,40
2017-04-21T12:14:59.288Z,40
2017-04-21T12:16:07.374Z,36
2017-04-21T12:17:15.453Z,44
2017-04-21T12:18:23.541Z,40
2017-04-21T12:19:31.627Z,40
2017-04-21T12:20:39.714Z,40
2017-04-21T12:21:47.796Z,40
2017-04-21T12:22:55.886Z,40
2017-04-21T12:24:03.977Z,40
2017-04-21T12:25:12.057Z,36
2017-04-21T12:26:20.150Z,40
2017-04-21T12:27:28.234Z,36
2017-04-21T12:28:36.314Z,40
2017-04-21T12:29:44.403Z,36
2017-04-21T12:30:52.501Z,40
2017-04-21T12:32:00.581Z,36
2017-04-21T12:33:08.667Z,36
2017-04-21T12:34:16.756Z,36
2017-04-21T12:35:24.841Z,40
2017-04-21T12:36:32.927Z,36
2017-04-21T12:37:41.007Z,36
2017-04-21T12:38:49.096Z,36
2017-04-21T12:39:57.180Z,36
2017-04-21T12:41:05.272Z,36
2017-04-21T12:42:13.423Z,36
2017-04-21T12:43:21.447Z,36
2017-04-21T12:44:29.530Z,36
2017-04-21T12:45:37.612Z,36
2017-04-21T12:46:45.707Z,36
2017-04-21T12:47:53.794Z,32
2017-04-21T12:49:01.873Z,36
2017-04-21T12:50:09.963Z,36
2017-04-21T12:51:18.054Z,36
2017-04-21T12:52:26.134Z,32
2017-04-21T12:53:34.232Z,36
2017-04-21T12:54:42.314Z,36
2017-04-21T12:55:50.398Z,32
2017-04-21T12:56:58.479Z,32
2017-04-21T12:58:06.572Z,32
2017-04-21T12:59:14.654Z,36
2017-04-21T13:00:22.738Z,36
2017-04-21T13:01:30.826Z,36
2017-04-21T13:02:38.909Z,32
2017-04-21T13:03:46.993Z,36
2017-04-21T13:04:55.078Z,36
2017-04-21T13:06:03.169Z,36
2017-04-21T13:07:11.255Z,32
2017-04-21T13:08:19.338Z,32
2017-04-21T13:09:27.425Z,36
2017-04-21T13:10:35.513Z,32
2017-04-21T13:11:43.669Z,32
2017-04-21T13:12:51.892Z,32
2017-04-21T13:14:00.286Z,36
2017-04-21T13:15:08.030Z,36
2017-04-21T13:16:16.630Z,32
2017-04-21T13:17:24.228Z,32
2017-04-21T13:18:32.435Z,32
2017-04-21T13:19:40.425Z,32
2017-04-21T13:20:48.367Z,36
2017-04-21T13:21:56.968Z,32
2017-04-21T13:23:04.662Z,32
2017-04-21T13:24:12.774Z,32
2017-04-21T13:25:21.311Z,32
2017-04-21T13:26:28.870Z,32
2017-04-21T13:27:36.792Z,32
2017-04-21T13:28:44.879Z,32
2017-04-21T13:29:52.971Z,32
2017-04-21T13:31:01.053Z,32
2017-04-21T13:32:09.134Z,32
2017-04-21T13:33:17.222Z,32
2017-04-21T13:34:25.311Z,32
2017-04-21T13:35:33.396Z,32
2017-04-21T13:36:41.484Z,32
2017-04-21T13:37:49.572Z,32
2017-04-21T13:38:57.656Z,32
2017-04-21T13:40:05.740Z,32
2017-04-21T13:41:13.826Z,32
2017-04-21T13:42:21.911Z,32
2017-04-21T13:43:29.992Z,32
2017-04-21T13:44:38.076Z,32
2017-04-21T13:45:46.229Z,28
2017-04-21T13:46:54.254Z,28
2017-04-21T13:48:02.340Z,32
2017-04-21T13:49:10.425Z,32
2017-04-21T13:50:18.515Z,32
2017-04-21T13:51:26.594Z,28
2017-04-21T13:52:34.677Z,28
2017-04-21T13:53:42.765Z,28
2017-04-21T13:54:50.844Z,28
2017-04-21T13:55:58.931Z,28
2017-04-21T13:57:07.019Z,32
2017-04-21T13:58:15.107Z,28
2017-04-21T13:59:23.189Z,28
2017-04-21T14:00:31.277Z,28
2017-04-21T14:01:39.361Z,28
2017-04-21T14:02:47.474Z,28
2017-04-21T14:03:55.531Z,32
2017-04-21T14:05:03.619Z,28
2017-04-21T14:06:11.704Z,28
2017-04-21T14:07:19.786Z,28
2017-04-21T14:08:27.873Z,28
2017-04-21T14:09:35.959Z,28
2017-04-21T14:10:44.044Z,28
2017-04-21T14:11:52.129Z,28
2017-04-21T14:13:00.213Z,28
2017-04-21T14:14:08.301Z,28
2017-04-21T14:15:16.380Z,28
2017-04-21T14:16:24.471Z,28
2017-04-21T14:17:32.554Z,28
2017-04-21T14:18:40.632Z,28
2017-04-21T14:19:48.722Z,28
2017-04-21T14:20:56.806Z,28
2017-04-21T14:22:04.894Z,28
2017-04-21T14:23:12.978Z,28
2017-04-21T14:24:21.065Z,28
2017-04-21T14:25:29.147Z,28
2017-04-21T14:26:37.228Z,28
2017-04-21T14:27:45.314Z,28
2017-04-21T14:28:53.401Z,28
2017-04-21T14:30:01.483Z,28
2017-04-21T14:31:09.567Z,24
2017-04-21T14:32:17.654Z,24
2017-04-21T14:33:25.739Z,24
2017-04-21T14:34:33.825Z,28
2017-04-21T14:35:41.923Z,24
2017-04-21T14:36:50.000Z,24
2017-04-21T14:37:58.089Z,24
2017-04-21T14:39:06.161Z,28
2017-04-21T14:40:14.254Z,28
2017-04-21T14:41:22.344Z,28
2017-04-21T14:42:30.425Z,28
2017-04-21T14:43:38.513Z,28
2017-04-21T14:44:46.602Z,28
2017-04-21T14:45:54.690Z,28
2017-04-21T14:47:02.772Z,28
2017-04-21T14:48:10.861Z,28
2017-04-21T14:49:18.951Z,28
2017-04-21T14:50:27.036Z,24
2017-04-21T14:51:35.120Z,24
2017-04-21T14:52:43.210Z,28
2017-04-21T14:53:51.291Z,28
2017-04-21T14:54:59.378Z,24
2017-04-21T14:56:07.473Z,24
2017-04-21T14:57:15.552Z,28
2017-04-21T14:58:23.639Z,28
2017-04-21T14:59:31.723Z,24
2017-04-21T15:00:39.812Z,28
2017-04-21T15:01:47.897Z,28
2017-04-21T15:02:55.977Z,24
2017-04-21T15:04:04.066Z,24
2017-04-21T15:05:12.154Z,28
2017-04-21T15:06:20.238Z,24
2017-04-21T15:07:28.320Z,24
2017-04-21T15:08:36.406Z,24
2017-04-21T15:09:44.492Z,24
2017-04-21T15:10:52.570Z,24
2017-04-21T15:12:00.660Z,24
2017-04-21T15:13:08.755Z,24
2017-04-21T15:14:16.835Z,24
2017-04-21T15:15:24.922Z,24
2017-04-21T15:16:33.009Z,24
2017-04-21T15:17:41.091Z,24
2017-04-21T15:18:49.174Z,24
2017-04-21T15:19:57.261Z,24
2017-04-21T15:21:05.344Z,24
2017-04-21T15:22:13.427Z,24
2017-04-21T15:23:21.517Z,24
2017-04-21T15:24:29.608Z,24
2017-04-21T15:25:37.694Z,20
2017-04-21T15:26:45.777Z,24
2017-04-21T15:27:53.864Z,24
2017-04-21T15:29:01.944Z,24
2017-04-21T15:30:10.027Z,24
2017-04-21T15:31:18.115Z,20
2017-04-21T15:32:26.198Z,20
2017-04-21T15:33:34.285Z,24
2017-04-21T15:34:42.371Z,24
2017-04-21T15:35:50.455Z,20
2017-04-21T15:36:58.540Z,20
2017-04-21T15:38:06.620Z,24
2017-04-21T15:39:14.714Z,20
2017-04-21T15:40:22.804Z,20
2017-04-21T15:41:30.887Z,20
2017-04-21T15:42:38.971Z,24
2017-04-21T15:43:47.061Z,24
2017-04-21T15:44:55.146Z,20
2017-04-21T15:46:03.234Z,20
2017-04-21T15:47:11.320Z,20
2017-04-21T15:48:19.406Z,20
2017-04-21T15:49:27.489Z,24
2017-04-21T15:50:35.571Z,20
2017-04-21T15:51:43.658Z,20
2017-04-21T15:52:51.743Z,20
2017-04-21T15:53:59.828Z,20
2017-04-21T15:55:07.915Z,20
2017-04-21T15:56:16.003Z,20
2017-04-21T15:57:24.085Z,20
2017-04-21T15:58:32.172Z,20
2017-04-21T15:59:40.254Z,16
2017-04-21T16:00:48.336Z,20
2017-04-21T16:01:56.424Z,20
2017-04-21T16:03:04.519Z,20
2017-04-21T16:04:12.593Z,20
2017-04-21T16:05:20.674Z,16
2017-04-21T16:06:28.764Z,16
2017-04-21T16:07:36.856Z,16
2017-04-21T16:08:44.936Z,16
2017-04-21T16:09:53.015Z,16
2017-04-21T16:11:01.108Z,20
2017-04-21T16:12:09.191Z,20
2017-04-21T16:13:17.277Z,20
2017-04-21T16:14:25.361Z,20
2017-04-21T16:15:33.449Z,20
2017-04-21T16:16:41.531Z,16
2017-04-21T16:17:49.612Z,16
2017-04-21T16:18:57.700Z,20
2017-04-21T16:20:05.786Z,16
2017-04-21T16:21:13.867Z,16
2017-04-21T16:22:21.954Z,16
2017-04-21T16:23:30.039Z,20
2017-04-21T16:24:38.121Z,16
2017-04-21T16:25:46.218Z,16
2017-04-21T16:26:54.299Z,16
2017-04-21T16:28:02.384Z,16
2017-04-21T16:29:10.465Z,16
2017-04-21T16:30:18.552Z,16
2017-04-21T16:31:26.636Z,16
2017-04-21T16:32:34.723Z,16
2017-04-21T16:33:42.807Z,16
2017-04-21T16:34:50.897Z,16
2017-04-21T16:35:58.980Z,12
2017-04-21T16:37:07.067Z,16
2017-04-21T16:38:15.150Z,16
2017-04-21T16:39:23.235Z,16
2017-04-21T16:40:31.316Z,12
2017-04-21T16:41:39.400Z,12
2017-04-21T16:42:47.498Z,16
2017-04-21T16:43:55.586Z,16